Terminal Aerodrome Forecast
Issued by NWS

Home | Current Version | Previous Version | Text Only | Print | Product List | Glossary Off
Versions: 1 2 3 4 5 6 7 8 9 10 11 12 13

000
FTUS43 KICT 281700
TAFHUT
TAF
KHUT 281722Z 2818/2918 36005KT P6SM SCT200
     FM290100 VRB03KT P6SM SKC
     FM291300 13006KT P6SM SCT120=

USA.gov is the U.S. government's official web portal to all federal, state and local government web resources and services.